Time;durP1;ratioP1;P1;durP2;ratioP2;P2;SDS_P1;SDS_P2;PMS_P1;PMS_P2;Temp;Humidity;BMP_temperature;BMP_pressure;BME280_temperature;BME280_humidity;BME280_pressure;Samples;Min_cycle;Max_cycle;Signal;HPM_P1;HPM_P2
2021/08/04 00:00:58;;;;;;;6.00;1.60;;;19.70;69.50;;;;;;5091889;28;20054;-71
2021/08/04 00:03:24;;;;;;;1.75;1.20;;;19.60;69.60;;;;;;5089880;28;20024;-71
2021/08/04 00:05:50;;;;;;;3.33;1.50;;;19.60;70.00;;;;;;5081159;28;20391;-71
2021/08/04 00:08:15;;;;;;;1.60;1.35;;;19.60;70.00;;;;;;5077744;28;20020;-71
2021/08/04 00:10:41;;;;;;;1.95;1.30;;;19.60;70.10;;;;;;5085731;28;20372;-71
2021/08/04 00:13:07;;;;;;;2.25;1.30;;;19.60;70.30;;;;;;5089636;28;20040;-71
2021/08/04 00:15:33;;;;;;;7.80;1.30;;;19.50;70.40;;;;;;5092318;28;20467;-71
2021/08/04 00:17:58;;;;;;;1.80;1.38;;;19.50;70.50;;;;;;5091484;28;20020;-71
2021/08/04 00:20:24;;;;;;;3.50;1.60;;;19.50;70.50;;;;;;5091711;28;20496;-71
2021/08/04 00:22:50;;;;;;;1.65;1.55;;;19.40;70.50;;;;;;5083794;28;20111;-71
2021/08/04 00:25:15;;;;;;;1.80;1.63;;;19.40;70.60;;;;;;5091133;28;20116;-71
2021/08/04 00:27:41;;;;;;;4.13;1.60;;;19.40;70.60;;;;;;5092172;28;20432;-71
2021/08/04 00:30:07;;;;;;;1.88;1.38;;;19.40;70.70;;;;;;5089975;28;20032;-71
2021/08/04 00:32:33;;;;;;;3.80;1.75;;;19.40;70.70;;;;;;5091516;28;20028;-71
2021/08/04 00:34:59;;;;;;;2.17;1.20;;;19.40;70.80;;;;;;5090474;28;20119;-71
2021/08/04 00:37:26;;;;;;;1.65;1.48;;;19.30;70.80;;;;;;5087995;28;20020;-71
2021/08/04 00:39:52;;;;;;;1.73;1.40;;;19.30;70.80;;;;;;5091728;28;20036;-71
2021/08/04 00:42:19;;;;;;;1.63;1.30;;;19.30;70.80;;;;;;5090646;28;20377;-71
2021/08/04 00:44:47;;;;;;;1.73;1.25;;;19.30;70.80;;;;;;5076334;28;20027;-71
2021/08/04 00:47:13;;;;;;;1.23;1.08;;;19.30;70.20;;;;;;5090645;28;20487;-71
2021/08/04 00:49:40;;;;;;;1.83;1.25;;;19.30;69.60;;;;;;5091086;28;20032;-71
2021/08/04 00:52:07;;;;;;;2.65;1.20;;;19.20;69.30;;;;;;5089699;28;20028;-71
2021/08/04 00:54:32;;;;;;;1.42;1.20;;;19.20;69.20;;;;;;5089827;28;20024;-71
2021/08/04 00:56:58;;;;;;;2.45;1.30;;;19.20;69.10;;;;;;5090334;28;20035;-71
2021/08/04 00:59:24;;;;;;;2.30;1.23;;;19.10;69.20;;;;;;5090953;28;20020;-71
2021/08/04 01:01:56;;;;;;;1.38;1.27;;;19.10;69.30;;;;;;5089305;28;20130;-71
2021/08/04 01:04:34;;;;;;;1.27;1.17;;;19.10;69.30;;;;;;5080941;28;20055;-71
2021/08/04 01:07:23;;;;;;;3.30;1.30;;;19.10;69.20;;;;;;5088678;28;20378;-70
2021/08/04 01:09:53;;;;;;;2.47;1.15;;;19.10;69.30;;;;;;5091745;28;20063;-71
2021/08/04 01:12:22;;;;;;;5.78;1.27;;;19.00;69.50;;;;;;5088589;28;20575;-71
2021/08/04 01:14:52;;;;;;;3.08;1.42;;;19.00;69.60;;;;;;5094103;28;20027;-71
2021/08/04 01:17:18;;;;;;;1.35;0.85;;;19.00;69.50;;;;;;5094782;28;20028;-71
2021/08/04 01:20:11;;;;;;;2.10;1.30;;;18.90;69.40;;;;;;5092963;28;20115;-71
2021/08/04 01:22:40;;;;;;;3.73;1.10;;;18.90;69.40;;;;;;5082646;28;20040;-71
2021/08/04 01:25:13;;;;;;;1.52;1.15;;;18.90;69.40;;;;;;5093178;28;21113;-71
2021/08/04 01:27:42;;;;;;;;;;;18.80;69.70;;;;;;5093772;28;20032;-71
2021/08/04 01:30:09;;;;;;;3.30;1.40;;;18.90;69.90;;;;;;5094765;28;19958;-71
2021/08/04 01:32:35;;;;;;;1.38;1.27;;;18.80;70.10;;;;;;5094205;28;20403;-71
2021/08/04 01:35:03;;;;;;;2.25;1.25;;;18.80;70.30;;;;;;5090123;28;20024;-71
2021/08/04 01:37:31;;;;;;;1.35;1.23;;;18.70;70.60;;;;;;5094416;28;20028;-71
2021/08/04 01:39:57;;;;;;;3.15;1.52;;;18.70;70.60;;;;;;5093296;28;20030;-71
2021/08/04 01:42:23;;;;;;;1.20;1.05;;;18.70;70.70;;;;;;5091228;28;20071;-71
2021/08/04 01:44:50;;;;;;;0.93;0.90;;;18.70;70.80;;;;;;5094796;28;20047;-71
2021/08/04 01:47:16;;;;;;;2.13;1.15;;;18.70;71.10;;;;;;5091545;28;20533;-71
2021/08/04 01:49:43;;;;;;;3.10;1.30;;;18.70;71.60;;;;;;5093280;28;20051;-71
2021/08/04 01:52:09;;;;;;;1.88;1.38;;;18.70;72.10;;;;;;5092429;28;20111;-71
2021/08/04 01:54:35;;;;;;;2.10;1.40;;;18.70;72.40;;;;;;5087353;28;20038;-71
2021/08/04 01:57:01;;;;;;;3.35;1.45;;;18.70;72.60;;;;;;5094857;28;20032;-71
2021/08/04 01:59:28;;;;;;;1.33;1.20;;;18.70;72.70;;;;;;5092255;28;20053;-71
2021/08/04 02:02:14;;;;;;;1.33;1.20;;;18.70;72.70;;;;;;5092697;28;20086;-71
2021/08/04 02:04:40;;;;;;;3.40;1.23;;;18.70;72.70;;;;;;5092084;28;20024;-71
2021/08/04 02:07:10;;;;;;;2.20;1.48;;;18.70;72.70;;;;;;5093121;28;20028;-71
2021/08/04 02:09:50;;;;;;;2.13;1.50;;;18.60;72.60;;;;;;5091044;28;20016;-72
2021/08/04 02:12:15;;;;;;;3.00;1.30;;;18.60;72.70;;;;;;5090431;28;20124;-70
2021/08/04 02:15:04;;;;;;;2.08;1.40;;;18.60;72.80;;;;;;5089962;28;20096;-71
2021/08/04 02:17:37;;;;;;;1.98;1.45;;;18.60;72.90;;;;;;5109092;28;20042;-71
2021/08/04 02:20:09;;;;;;;4.03;1.40;;;18.60;73.00;;;;;;5088364;28;20020;-71
2021/08/04 02:22:57;;;;;;;5.47;1.85;;;18.60;73.00;;;;;;5090952;28;20036;-71
2021/08/04 02:25:36;;;;;;;1.40;1.30;;;18.60;73.00;;;;;;5094025;28;20095;-71
2021/08/04 02:28:06;;;;;;;2.10;1.30;;;18.60;73.10;;;;;;5087281;28;20035;-71
2021/08/04 02:30:34;;;;;;;2.50;1.10;;;18.60;73.10;;;;;;5093036;28;20020;-71
2021/08/04 02:33:01;;;;;;;5.60;1.60;;;18.60;73.30;;;;;;5092206;28;20478;-72
2021/08/04 02:35:27;;;;;;;4.72;1.30;;;18.50;73.30;;;;;;5093652;28;20028;-72
2021/08/04 02:37:53;;;;;;;2.47;1.45;;;18.50;73.50;;;;;;5092950;28;20081;-71
2021/08/04 02:40:22;;;;;;;2.72;1.52;;;18.50;73.60;;;;;;5091216;28;20032;-72
2021/08/04 02:42:50;;;;;;;2.22;1.42;;;18.50;73.70;;;;;;5090443;28;20044;-72
2021/08/04 02:45:15;;;;;;;2.95;1.60;;;18.50;73.70;;;;;;5090924;28;20115;-72
2021/08/04 02:47:42;;;;;;;1.40;1.30;;;18.50;73.70;;;;;;5092460;28;20059;-71
2021/08/04 02:50:09;;;;;;;1.80;1.40;;;18.50;73.80;;;;;;5092294;28;20475;-72
2021/08/04 02:52:36;;;;;;;2.38;1.40;;;18.50;73.90;;;;;;5091219;28;20390;-72
2021/08/04 02:55:03;;;;;;;1.42;1.30;;;18.40;74.00;;;;;;5093323;28;20096;-71
2021/08/04 02:57:29;;;;;;;2.28;1.40;;;18.40;74.20;;;;;;5093050;28;20027;-72
2021/08/04 02:59:54;;;;;;;3.15;1.70;;;18.50;74.40;;;;;;5092268;28;20077;-71
2021/08/04 03:02:20;;;;;;;7.88;1.67;;;18.50;74.40;;;;;;5091957;28;20484;-71
2021/08/04 03:04:46;;;;;;;3.70;2.03;;;18.40;74.50;;;;;;5092496;28;20028;-71
2021/08/04 03:07:11;;;;;;;2.55;1.60;;;18.40;74.50;;;;;;5092895;28;20024;-71
2021/08/04 03:09:37;;;;;;;5.20;1.73;;;18.40;74.40;;;;;;5092868;28;20399;-72
2021/08/04 03:12:03;;;;;;;3.85;1.40;;;18.40;74.50;;;;;;5090227;28;20041;-71
2021/08/04 03:14:29;;;;;;;6.53;1.80;;;18.40;74.50;;;;;;5091223;28;20045;-71
2021/08/04 03:16:55;;;;;;;5.18;1.63;;;18.40;74.60;;;;;;5091742;28;20475;-72
2021/08/04 03:19:20;;;;;;;6.53;1.77;;;18.40;74.70;;;;;;5091183;28;20042;-72
2021/08/04 03:21:46;;;;;;;5.18;1.88;;;18.30;74.70;;;;;;5091707;28;20036;-72
2021/08/04 03:24:12;;;;;;;4.80;1.70;;;18.40;74.80;;;;;;5092787;28;20027;-72
2021/08/04 03:26:37;;;;;;;5.88;1.70;;;18.40;74.90;;;;;;5091527;28;20114;-72
2021/08/04 03:29:03;;;;;;;3.53;1.70;;;18.40;75.00;;;;;;5092710;28;20085;-72
2021/08/04 03:31:29;;;;;;;4.57;1.75;;;18.40;75.10;;;;;;5092506;28;20124;-72
2021/08/04 03:33:55;;;;;;;3.50;1.73;;;18.30;75.20;;;;;;5091275;28;20082;-72
2021/08/04 03:36:22;;;;;;;3.00;1.60;;;18.40;75.30;;;;;;5092453;28;20093;-72
2021/08/04 03:38:48;;;;;;;4.57;1.80;;;18.30;75.30;;;;;;5092698;28;20024;-72
2021/08/04 03:41:13;;;;;;;10.85;3.03;;;18.40;75.40;;;;;;5091541;28;20058;-72
2021/08/04 03:43:39;;;;;;;8.73;1.80;;;18.30;75.40;;;;;;5090220;28;20074;-72
2021/08/04 03:46:05;;;;;;;2.47;1.60;;;18.30;75.40;;;;;;5092752;28;20035;-72
2021/08/04 03:48:30;;;;;;;8.30;3.05;;;18.30;75.40;;;;;;5090928;28;20111;-72
2021/08/04 03:50:56;;;;;;;2.33;1.85;;;18.30;75.50;;;;;;5092924;28;20118;-72
2021/08/04 03:53:22;;;;;;;9.10;1.75;;;18.20;75.50;;;;;;5092163;28;20032;-72
2021/08/04 03:55:47;;;;;;;3.33;1.70;;;18.20;75.70;;;;;;5091391;28;20489;-72
2021/08/04 03:58:13;;;;;;;2.22;1.70;;;18.20;75.90;;;;;;5092517;28;20099;-72
2021/08/04 04:00:39;;;;;;;4.07;1.67;;;18.20;76.00;;;;;;5090878;28;20020;-72
2021/08/04 04:03:05;;;;;;;2.40;1.60;;;18.20;76.10;;;;;;5092052;28;20103;-72
2021/08/04 04:05:31;;;;;;;6.82;1.73;;;18.20;76.10;;;;;;5091656;28;20119;-72
2021/08/04 04:07:56;;;;;;;3.88;1.83;;;18.20;76.20;;;;;;5091428;28;20467;-72
2021/08/04 04:10:22;;;;;;;2.70;1.52;;;18.20;76.20;;;;;;5091886;28;20031;-72
2021/08/04 04:12:50;;;;;;;3.45;1.77;;;18.20;76.20;;;;;;5091847;28;20131;-72
2021/08/04 04:15:16;;;;;;;3.17;1.70;;;18.20;76.40;;;;;;5091480;28;20032;-72
2021/08/04 04:17:41;;;;;;;3.55;1.77;;;18.20;76.60;;;;;;5091325;28;20028;-72
2021/08/04 04:20:12;;;;;;;6.40;1.75;;;18.20;76.70;;;;;;5091962;28;20062;-72
2021/08/04 04:22:38;;;;;;;5.03;1.65;;;18.20;77.00;;;;;;5090584;28;20489;-73
2021/08/04 04:25:04;;;;;;;4.00;1.80;;;18.10;77.10;;;;;;5091074;28;20028;-75
2021/08/04 04:27:30;;;;;;;3.47;1.70;;;18.20;77.30;;;;;;5092037;28;20034;-78
2021/08/04 04:29:56;;;;;;;3.35;1.60;;;18.20;77.50;;;;;;5090988;28;20403;-76
2021/08/04 04:32:22;;;;;;;7.18;1.67;;;18.10;77.50;;;;;;5092051;28;20391;-77
2021/08/04 04:34:48;;;;;;;6.43;1.60;;;18.10;77.70;;;;;;5091086;28;20115;-72
2021/08/04 04:37:13;;;;;;;3.80;1.50;;;18.20;77.80;;;;;;5091167;28;20026;-73
2021/08/04 04:39:39;;;;;;;5.60;2.78;;;18.20;78.50;;;;;;5091067;28;20111;-73
2021/08/04 04:42:05;;;;;;;8.07;1.60;;;18.10;78.00;;;;;;5089126;28;20131;-72
2021/08/04 04:44:30;;;;;;;2.08;1.48;;;18.10;78.10;;;;;;5090921;28;20474;-72
2021/08/04 04:46:56;;;;;;;4.25;1.45;;;18.20;78.30;;;;;;5094337;28;20031;-72
2021/08/04 04:49:22;;;;;;;2.45;1.38;;;18.20;78.50;;;;;;5095402;28;20024;-73
2021/08/04 04:51:47;;;;;;;5.93;1.67;;;18.20;78.70;;;;;;5095264;28;20031;-73
2021/08/04 04:54:13;;;;;;;3.33;1.50;;;18.20;78.90;;;;;;5095463;28;20054;-72
2021/08/04 04:56:39;;;;;;;15.57;2.08;;;18.20;79.10;;;;;;5095119;28;20027;-72
2021/08/04 04:59:04;;;;;;;2.25;1.55;;;18.20;79.20;;;;;;5094958;28;20519;-72
2021/08/04 05:01:31;;;;;;;3.08;1.45;;;18.20;79.40;;;;;;5094852;28;20040;-72
2021/08/04 05:03:57;;;;;;;3.97;1.77;;;18.30;79.70;;;;;;5094632;28;20498;-72
2021/08/04 05:06:22;;;;;;;2.88;1.30;;;18.30;79.80;;;;;;5093365;28;20032;-72
2021/08/04 05:08:48;;;;;;;1.63;1.33;;;18.30;80.00;;;;;;5095134;28;20028;-72
2021/08/04 05:11:13;;;;;;;1.52;1.17;;;18.30;80.10;;;;;;5094527;28;20031;-72
2021/08/04 05:13:39;;;;;;;1.20;1.10;;;18.30;80.20;;;;;;5095519;28;20047;-72
2021/08/04 05:16:05;;;;;;;1.67;1.00;;;18.30;80.40;;;;;;5094887;28;20031;-72
2021/08/04 05:18:31;;;;;;;2.03;0.95;;;18.30;80.30;;;;;;5094810;28;20243;-72
2021/08/04 05:20:57;;;;;;;1.40;0.95;;;18.30;80.50;;;;;;5094779;28;20482;-72
2021/08/04 05:23:22;;;;;;;3.42;1.20;;;18.30;80.60;;;;;;5094977;28;20455;-72
2021/08/04 05:25:48;;;;;;;1.88;1.00;;;18.40;80.70;;;;;;5094075;28;20035;-72
2021/08/04 05:28:14;;;;;;;1.00;0.90;;;18.40;80.80;;;;;;5094766;28;20030;-72
2021/08/04 05:30:39;;;;;;;1.48;1.13;;;18.40;80.90;;;;;;5095334;28;20371;-72
2021/08/04 05:33:05;;;;;;;1.85;1.00;;;18.40;81.10;;;;;;5092105;28;20028;-72
2021/08/04 05:35:31;;;;;;;1.38;0.95;;;18.40;81.10;;;;;;5094880;28;20399;-72
2021/08/04 05:37:56;;;;;;;1.38;1.02;;;18.40;81.30;;;;;;5094289;28;20035;-72
2021/08/04 05:40:22;;;;;;;1.77;0.82;;;18.40;81.30;;;;;;5093652;28;20020;-72
2021/08/04 05:42:47;;;;;;;1.90;1.10;;;18.50;81.30;;;;;;5093118;28;20031;-72
2021/08/04 05:45:13;;;;;;;2.58;1.20;;;18.40;81.30;;;;;;5094668;28;20031;-72
2021/08/04 05:47:39;;;;;;;1.17;1.00;;;18.50;81.50;;;;;;5093371;28;20387;-72
2021/08/04 05:50:05;;;;;;;1.42;1.10;;;18.50;81.60;;;;;;5094718;28;20027;-72
2021/08/04 05:52:31;;;;;;;3.17;1.05;;;18.50;81.90;;;;;;5094218;28;20117;-72
2021/08/04 05:54:57;;;;;;;2.95;1.15;;;18.60;82.00;;;;;;5093547;28;20179;-72
2021/08/04 05:57:23;;;;;;;1.38;1.17;;;18.50;82.30;;;;;;5093181;28;20036;-72
2021/08/04 05:59:48;;;;;;;2.47;1.25;;;18.60;82.60;;;;;;5094162;28;20154;-71
2021/08/04 06:02:14;;;;;;;2.00;1.10;;;18.60;82.90;;;;;;5093801;28;20042;-72
2021/08/04 06:04:40;;;;;;;2.38;1.17;;;18.60;83.00;;;;;;5093794;28;20024;-72
2021/08/04 06:07:05;;;;;;;1.70;1.10;;;18.60;83.10;;;;;;5094103;28;20152;-72
2021/08/04 06:09:31;;;;;;;2.10;1.10;;;18.60;83.00;;;;;;5092529;28;20032;-72
2021/08/04 06:11:58;;;;;;;1.35;1.20;;;18.70;83.00;;;;;;5093503;28;20044;-72
2021/08/04 06:14:23;;;;;;;2.67;1.02;;;18.60;82.90;;;;;;5094420;28;20467;-74
2021/08/04 06:16:49;;;;;;;4.05;1.30;;;18.60;82.90;;;;;;5093014;28;20028;-74
2021/08/04 06:19:16;;;;;;;1.10;1.02;;;18.70;82.70;;;;;;5094410;28;20073;-75
2021/08/04 06:21:42;;;;;;;1.42;1.00;;;18.70;82.60;;;;;;5093285;28;20171;-75
2021/08/04 06:24:07;;;;;;;1.10;0.90;;;18.70;82.20;;;;;;5093404;28;20020;-75
2021/08/04 06:26:34;;;;;;;2.78;1.10;;;18.70;82.00;;;;;;5094592;28;20483;-75
2021/08/04 06:29:00;;;;;;;5.50;1.15;;;18.70;81.90;;;;;;5092886;28;20024;-75
2021/08/04 06:31:25;;;;;;;0.80;0.80;;;18.80;81.80;;;;;;5094333;28;20486;-75
2021/08/04 06:33:51;;;;;;;1.10;1.00;;;18.80;81.70;;;;;;5093366;28;20028;-74
2021/08/04 06:36:16;;;;;;;5.78;1.00;;;18.80;81.70;;;;;;5092955;28;20080;-75
2021/08/04 06:38:42;;;;;;;0.80;0.80;;;18.80;81.60;;;;;;5093726;28;20027;-75
2021/08/04 06:41:08;;;;;;;1.98;1.02;;;18.80;81.50;;;;;;5092852;28;20502;-75
2021/08/04 06:43:33;;;;;;;1.98;1.20;;;18.80;81.50;;;;;;5090794;28;20016;-75
2021/08/04 06:45:59;;;;;;;0.85;0.85;;;18.80;81.50;;;;;;5092868;28;20371;-75
2021/08/04 06:48:24;;;;;;;1.48;1.10;;;18.90;81.40;;;;;;5093706;28;20020;-75
2021/08/04 06:50:50;;;;;;;3.05;0.85;;;18.90;81.20;;;;;;5092292;28;20530;-80
2021/08/04 06:53:16;;;;;;;0.90;0.90;;;18.90;81.10;;;;;;5092669;28;20430;-75
2021/08/04 06:55:41;;;;;;;1.00;0.90;;;18.90;81.10;;;;;;5092647;28;20071;-74
2021/08/04 06:58:07;;;;;;;1.23;0.90;;;18.90;81.10;;;;;;5092146;28;20032;-75
2021/08/04 07:00:33;;;;;;;1.88;1.20;;;18.90;81.20;;;;;;5092966;28;20127;-75
2021/08/04 07:02:58;;;;;;;1.75;0.70;;;18.90;81.00;;;;;;5093238;28;20114;-74
2021/08/04 07:05:24;;;;;;;0.88;0.77;;;18.90;81.00;;;;;;5092663;28;20102;-75
2021/08/04 07:07:50;;;;;;;2.35;1.10;;;19.00;80.90;;;;;;5092915;28;20115;-75
2021/08/04 07:10:16;;;;;;;1.63;1.10;;;19.00;80.60;;;;;;5092630;28;20058;-75
2021/08/04 07:12:42;;;;;;;2.17;0.80;;;19.00;80.50;;;;;;5091649;28;20564;-75
2021/08/04 07:15:08;;;;;;;1.15;1.00;;;19.00;80.40;;;;;;5092884;28;20040;-74
2021/08/04 07:17:49;;;;;;;1.50;1.05;;;19.00;80.20;;;;;;5093134;28;20036;-82
2021/08/04 07:20:17;;;;;;;1.38;1.05;;;19.10;80.20;;;;;;5092046;28;20074;-87
2021/08/04 07:22:42;;;;;;;3.15;0.80;;;19.10;80.10;;;;;;5092709;28;20048;-80
2021/08/04 07:25:10;;;;;;;1.15;0.77;;;19.10;80.10;;;;;;5091872;28;20074;-72
2021/08/04 07:27:35;;;;;;;5.22;1.50;;;19.10;80.00;;;;;;5092608;28;20035;-74
2021/08/04 07:30:02;;;;;;;0.95;0.80;;;19.10;79.90;;;;;;5092053;28;20032;-74
2021/08/04 07:32:28;;;;;;;1.10;0.80;;;19.20;80.00;;;;;;5091916;28;20129;-75
2021/08/04 07:34:53;;;;;;;2.28;1.10;;;19.20;79.80;;;;;;5091860;28;20103;-74
2021/08/04 07:37:19;;;;;;;1.58;1.10;;;19.20;79.60;;;;;;5092631;28;20033;-74
2021/08/04 07:39:45;;;;;;;0.80;0.80;;;19.20;79.60;;;;;;5091125;28;20103;-74
2021/08/04 07:42:10;;;;;;;0.80;0.80;;;19.30;79.60;;;;;;5091931;28;20162;-74
2021/08/04 07:44:36;;;;;;;1.05;0.80;;;19.30;79.40;;;;;;5091688;28;20028;-74
2021/08/04 07:47:02;;;;;;;1.55;1.00;;;19.40;79.30;;;;;;5090065;28;20070;-74
2021/08/04 07:49:27;;;;;;;2.30;0.95;;;19.40;79.20;;;;;;5091575;28;20032;-74
2021/08/04 07:51:53;;;;;;;1.00;0.90;;;19.40;79.20;;;;;;5091727;28;20786;-74
2021/08/04 07:54:19;;;;;;;0.93;0.82;;;19.40;79.30;;;;;;5089973;28;20387;-74
2021/08/04 07:56:44;;;;;;;1.58;1.00;;;19.50;79.40;;;;;;5090819;28;20035;-74
2021/08/04 07:59:10;;;;;;;0.98;0.90;;;19.50;79.20;;;;;;5090411;28;20035;-74
2021/08/04 08:01:36;;;;;;;1.65;1.15;;;19.50;79.30;;;;;;5089000;28;20035;-74
2021/08/04 08:04:02;;;;;;;2.15;1.25;;;19.60;79.40;;;;;;5090199;28;20471;-74
2021/08/04 08:06:27;;;;;;;5.18;1.00;;;19.60;79.40;;;;;;5090458;28;20395;-76
2021/08/04 08:08:53;;;;;;;1.15;0.90;;;19.60;79.20;;;;;;5089115;28;20081;-75
2021/08/04 08:11:19;;;;;;;1.73;1.00;;;19.60;78.90;;;;;;5089213;28;20024;-75
2021/08/04 08:13:44;;;;;;;3.45;1.10;;;19.70;78.90;;;;;;5086720;28;20043;-72
2021/08/04 08:16:10;;;;;;;2.63;0.95;;;19.70;78.70;;;;;;5089479;28;20448;-75
2021/08/04 08:18:36;;;;;;;2.75;0.80;;;19.70;78.30;;;;;;5089340;28;20024;-76
2021/08/04 08:21:01;;;;;;;1.38;0.77;;;19.80;78.40;;;;;;5089816;28;20031;-75
2021/08/04 08:23:27;;;;;;;0.93;0.70;;;19.80;78.50;;;;;;5087925;28;20483;-75
2021/08/04 08:25:54;;;;;;;10.00;0.88;;;19.90;78.50;;;;;;5089011;28;20089;-76
2021/08/04 08:28:20;;;;;;;0.70;0.70;;;19.90;78.50;;;;;;5088473;28;20078;-74
2021/08/04 08:30:45;;;;;;;2.10;1.10;;;19.90;78.60;;;;;;5088879;28;20020;-73
2021/08/04 08:33:11;;;;;;;0.98;0.85;;;20.00;78.80;;;;;;5089502;28;20028;-74
2021/08/04 08:35:38;;;;;;;0.80;0.80;;;20.00;78.40;;;;;;5088132;28;20028;-74
2021/08/04 08:38:03;;;;;;;1.00;0.90;;;20.00;78.20;;;;;;5089943;28;20032;-74
2021/08/04 08:40:29;;;;;;;0.70;0.70;;;20.00;78.10;;;;;;5089475;28;20106;-73
2021/08/04 08:42:55;;;;;;;1.13;0.80;;;20.00;78.50;;;;;;5089746;28;20038;-74
2021/08/04 08:45:21;;;;;;;0.57;0.50;;;20.20;78.50;;;;;;5089676;28;20058;-75
2021/08/04 08:47:47;;;;;;;3.63;1.30;;;20.10;79.00;;;;;;5088900;28;20093;-74
2021/08/04 08:50:14;;;;;;;0.95;0.80;;;20.10;78.30;;;;;;5086596;28;20031;-74
2021/08/04 08:52:40;;;;;;;0.82;0.80;;;20.20;78.00;;;;;;5086600;28;20024;-74
2021/08/04 08:55:08;;;;;;;0.73;0.73;;;20.30;78.30;;;;;;5088417;28;20024;-75
2021/08/04 08:57:35;;;;;;;3.33;0.95;;;20.30;78.00;;;;;;5086807;28;20032;-75
2021/08/04 09:00:01;;;;;;;3.03;1.40;;;20.40;77.80;;;;;;5090208;28;20020;-76
2021/08/04 09:02:28;;;;;;;1.10;0.82;;;20.40;77.50;;;;;;5091041;28;20043;-74
2021/08/04 09:05:00;;;;;;;0.90;0.82;;;20.40;77.10;;;;;;5087400;28;20032;-75
2021/08/04 09:07:35;;;;;;;1.17;1.10;;;20.50;76.80;;;;;;5089445;28;20407;-74
2021/08/04 09:10:20;;;;;;;3.60;0.90;;;20.60;76.40;;;;;;5091429;28;20145;-75
2021/08/04 09:12:47;;;;;;;3.30;1.05;;;20.60;76.40;;;;;;5090706;28;20071;-75
2021/08/04 09:15:36;;;;;;;1.00;0.90;;;20.60;76.00;;;;;;5091729;28;20028;-75
2021/08/04 09:18:10;;;;;;;3.30;1.08;;;20.70;75.70;;;;;;5090624;28;20032;-75
2021/08/04 09:20:45;;;;;;;1.23;0.90;;;20.70;75.30;;;;;;5091625;28;20037;-75
2021/08/04 09:23:17;;;;;;;1.52;1.00;;;20.80;75.20;;;;;;5089700;28;20111;-75
2021/08/04 09:26:07;;;;;;;0.98;0.82;;;20.80;74.80;;;;;;5089106;28;20024;-74
2021/08/04 09:28:53;;;;;;;2.65;1.00;;;20.90;75.10;;;;;;5089375;28;20028;-75
2021/08/04 09:31:19;;;;;;;3.83;1.20;;;20.90;74.80;;;;;;5086883;28;20036;-80
2021/08/04 09:33:46;;;;;;;1.08;0.82;;;21.00;74.80;;;;;;5092103;28;20020;-75
2021/08/04 09:36:25;;;;;;;2.00;1.05;;;21.10;74.70;;;;;;5093539;28;20047;-74
2021/08/04 09:39:04;;;;;;;1.50;1.00;;;21.10;74.40;;;;;;5090005;28;20035;-74
2021/08/04 09:41:31;;;;;;;1.15;0.75;;;21.20;74.20;;;;;;5092652;28;20047;-74
2021/08/04 09:44:05;;;;;;;2.80;0.82;;;21.20;74.20;;;;;;5092951;28;20103;-75
2021/08/04 09:46:30;;;;;;;2.50;0.90;;;21.20;74.80;;;;;;5090003;28;20540;-74
2021/08/04 09:49:18;;;;;;;2.03;1.00;;;21.20;74.80;;;;;;5091574;28;20036;-74
2021/08/04 09:51:45;;;;;;;3.50;0.90;;;21.30;75.10;;;;;;5090652;28;20035;-74
2021/08/04 09:54:13;;;;;;;1.40;0.75;;;21.30;75.00;;;;;;5090098;28;20032;-75
2021/08/04 09:56:56;;;;;;;2.00;0.82;;;21.30;74.60;;;;;;5088632;28;20044;-73
2021/08/04 09:59:22;;;;;;;1.02;0.93;;;21.30;74.70;;;;;;5090238;28;20081;-75
2021/08/04 10:01:47;;;;;;;3.47;1.17;;;21.40;74.40;;;;;;5090640;28;20442;-75
2021/08/04 10:04:14;;;;;;;1.20;0.93;;;21.40;74.10;;;;;;5090917;28;20023;-74
2021/08/04 10:06:42;;;;;;;1.73;0.90;;;21.50;73.90;;;;;;5091442;28;20039;-74
2021/08/04 10:09:13;;;;;;;2.65;1.20;;;21.50;73.40;;;;;;5091762;28;20194;-74
2021/08/04 10:11:50;;;;;;;1.30;1.13;;;21.60;73.40;;;;;;5091290;28;20124;-73
2021/08/04 10:14:21;;;;;;;1.95;1.23;;;21.60;74.10;;;;;;5086483;28;20016;-73
2021/08/04 10:16:48;;;;;;;1.65;1.05;;;21.60;73.80;;;;;;5093097;28;20039;-74
2021/08/04 10:19:16;;;;;;;1.35;0.57;;;21.70;74.10;;;;;;5086504;28;20028;-73
2021/08/04 10:21:46;;;;;;;0.98;0.90;;;21.70;74.50;;;;;;5092992;28;20043;-73
2021/08/04 10:24:15;;;;;;;4.32;1.20;;;21.80;74.00;;;;;;5094049;28;20043;-74
2021/08/04 10:26:41;;;;;;;2.38;1.00;;;21.80;74.10;;;;;;5093778;28;20425;-74
2021/08/04 10:29:09;;;;;;;1.70;1.10;;;21.80;73.90;;;;;;5092717;28;20052;-75
2021/08/04 10:31:36;;;;;;;1.05;0.70;;;21.90;73.40;;;;;;5093759;28;20071;-75
2021/08/04 10:34:03;;;;;;;1.92;1.13;;;21.90;73.90;;;;;;5092008;28;20031;-75
2021/08/04 10:36:34;;;;;;;1.42;1.10;;;22.00;73.50;;;;;;5093190;28;20038;-74
2021/08/04 10:39:09;;;;;;;2.35;1.13;;;22.00;73.80;;;;;;5092909;28;20541;-73
2021/08/04 10:41:36;;;;;;;1.75;0.93;;;22.00;73.20;;;;;;5090052;28;20031;-73
2021/08/04 10:44:05;;;;;;;3.45;1.05;;;22.00;73.80;;;;;;5088900;28;20048;-73
2021/08/04 10:46:30;;;;;;;2.72;1.10;;;22.00;74.10;;;;;;5090430;28;20028;-74
2021/08/04 10:49:09;;;;;;;1.80;0.88;;;22.00;74.40;;;;;;5092232;28;20040;-75
2021/08/04 10:52:04;;;;;;;1.30;1.08;;;22.00;73.50;;;;;;5092499;28;20050;-74
2021/08/04 10:54:31;;;;;;;7.68;1.25;;;22.10;74.60;;;;;;5092146;28;20032;-75
2021/08/04 10:56:56;;;;;;;1.92;1.10;;;22.10;74.70;;;;;;5091154;28;20038;-78
2021/08/04 10:59:25;;;;;;;1.65;1.00;;;22.10;74.00;;;;;;5092556;28;20107;-75
2021/08/04 11:02:01;;;;;;;5.80;1.08;;;22.10;74.20;;;;;;5093448;28;20048;-76
2021/08/04 11:04:32;;;;;;;0.70;0.70;;;22.20;73.90;;;;;;5090493;28;20032;-76
2021/08/04 11:07:07;;;;;;;1.42;0.90;;;22.20;74.90;;;;;;5092280;28;20410;-75
2021/08/04 11:09:35;;;;;;;1.98;0.93;;;22.20;74.20;;;;;;5089911;28;20455;-81
2021/08/04 11:12:03;;;;;;;1.30;1.20;;;22.30;74.20;;;;;;5088282;28;20052;-79
2021/08/04 11:14:46;;;;;;;9.43;1.17;;;22.30;73.20;;;;;;5087585;28;20020;-74
2021/08/04 11:17:14;;;;;;;3.00;1.10;;;22.30;73.40;;;;;;5090587;28;20056;-79
2021/08/04 11:19:58;;;;;;;1.70;0.90;;;22.30;73.30;;;;;;5091439;28;20422;-74
2021/08/04 11:22:30;;;;;;;3.13;0.90;;;22.30;74.10;;;;;;5092026;28;20044;-79
2021/08/04 11:24:58;;;;;;;3.92;1.13;;;22.40;73.90;;;;;;5092640;28;20028;-89
2021/08/04 11:27:26;;;;;;;1.10;0.90;;;22.40;73.00;;;;;;5092709;28;20419;-77
2021/08/04 11:29:53;;;;;;;1.02;1.02;;;22.50;73.40;;;;;;5092989;28;20097;-78
2021/08/04 11:32:21;;;;;;;3.90;1.40;;;22.50;73.40;;;;;;5088678;28;20036;-82
2021/08/04 11:34:47;;;;;;;1.10;0.80;;;22.60;73.10;;;;;;5092813;28;20127;-75
2021/08/04 11:37:13;;;;;;;4.38;1.00;;;22.60;74.80;;;;;;5092008;28;20506;-79
2021/08/04 11:40:03;;;;;;;9.68;1.08;;;22.60;74.40;;;;;;5092155;28;20040;-75
2021/08/04 11:42:30;;;;;;;2.70;0.85;;;22.60;74.20;;;;;;5091098;28;20051;-76
2021/08/04 11:45:04;;;;;;;1.30;0.85;;;22.70;73.70;;;;;;5092523;28;20032;-77
2021/08/04 11:47:29;;;;;;;;;;;22.60;73.20;;;;;;5092607;28;20082;-77
2021/08/04 11:49:57;;;;;;;0.75;0.75;;;22.60;75.30;;;;;;5092572;28;19908;-75
2021/08/04 11:52:26;;;;;;;1.30;1.02;;;22.70;74.80;;;;;;5091678;28;20031;-75
2021/08/04 11:55:03;;;;;;;2.10;1.17;;;22.60;72.90;;;;;;5091552;28;20032;-76
2021/08/04 11:57:32;;;;;;;4.65;1.05;;;22.60;73.40;;;;;;5092044;28;20042;-75
2021/08/04 12:00:09;;;;;;;3.78;0.90;;;22.70;73.20;;;;;;5091241;28;20028;-75
2021/08/04 12:02:38;;;;;;;2.28;1.20;;;22.60;73.70;;;;;;5092291;28;20085;-75
2021/08/04 12:05:07;;;;;;;1.60;0.90;;;22.70;73.00;;;;;;5091912;28;20059;-74
2021/08/04 12:07:34;;;;;;;4.13;1.92;;;22.70;73.80;;;;;;5090460;28;20047;-74
2021/08/04 12:10:13;;;;;;;2.30;0.80;;;22.70;73.10;;;;;;5088001;28;20031;-75
2021/08/04 12:12:41;;;;;;;3.35;1.20;;;22.80;72.60;;;;;;5085473;28;20480;-75
2021/08/04 12:15:15;;;;;;;3.20;1.00;;;22.80;71.70;;;;;;5090748;28;20016;-76
2021/08/04 12:17:41;;;;;;;2.80;0.93;;;22.90;72.50;;;;;;5091717;28;20044;-75
2021/08/04 12:20:21;;;;;;;1.77;0.85;;;22.80;73.80;;;;;;5086462;28;20133;-76
2021/08/04 12:23:10;;;;;;;2.10;0.80;;;22.90;73.00;;;;;;5085149;28;20387;-78
2021/08/04 12:25:39;;;;;;;2.55;1.10;;;22.90;73.00;;;;;;5088933;28;20066;-77
2021/08/04 12:28:06;;;;;;;3.05;0.88;;;22.90;72.30;;;;;;5091314;28;20125;-77
2021/08/04 12:30:36;;;;;;;3.35;0.85;;;22.90;72.90;;;;;;5092086;28;20044;-76
2021/08/04 12:33:11;;;;;;;9.30;1.20;;;22.90;73.10;;;;;;5091356;28;20035;-77
2021/08/04 12:36:21;;;;;;;2.42;0.90;;;22.90;71.80;;;;;;5085002;28;20056;-78
2021/08/04 12:38:49;;;;;;;3.97;1.17;;;22.90;72.40;;;;;;5090665;28;20040;-77
2021/08/04 12:41:23;;;;;;;1.48;0.73;;;23.00;71.90;;;;;;5091818;28;20391;-76
2021/08/04 12:43:54;;;;;;;2.20;1.20;;;22.90;71.90;;;;;;5090882;28;20357;-79
2021/08/04 12:46:29;;;;;;;0.70;0.70;;;23.00;71.80;;;;;;5092041;28;20028;-82
2021/08/04 12:49:22;;;;;;;2.72;1.15;;;23.00;72.90;;;;;;5090754;28;20035;-85
2021/08/04 12:51:55;;;;;;;4.43;1.27;;;23.00;71.70;;;;;;5091826;28;20036;-82
2021/08/04 12:54:31;;;;;;;1.27;1.10;;;23.00;72.00;;;;;;5086726;28;20043;-84